Neffs, Ohio
Current Conditions -  °F | °C
As of 4:53 AM on Sunday 26 Oct 2014 (Local Time) from KHLG Reporting Station
Clear Clear  
Wind Chill: 46°   Ceiling: Unl
Heat Index: 49°   Visibility: 10mi
Dew Point: 31°   Wind: 7mph
Humidity: 50%   Direction: 270°W
Pressure: 29.84"   Gusts: NA
Location:  40.03°N, 80.82°W
Report Text: KHLG 260853Z AUTO 27006KT 10SM CLR 09/M01 A2984 RMK AO2 SLP107 T00941006 53006
Loading
Personal Weather Stations






























Interactive Weather Map
Tropical Storm Tracking
New forecast layout! Learn more

10-Day Weather Forecast

Advertisements
Track Severe Weather on mobile